Terminal Aerodrome Forecast
Issued by NWS

Current Version | Previous Version | Text Only | Print | Product List | Glossary Off
Versions: 1 2 3 4 5 6 7 8 9 10 11 12 13 14 15 16 17 18 19 20 21 22 23 24 25 26

000
FTUS41 KRLX 040204 AAA
TAFCKB
TAF AMD
KCKB 040204Z 0402/0424 00000KT 5SM SHRA BR OVC030
     FM040600 00000KT 3SM BR OVC015
     FM040800 00000KT 2SM BR OVC008
     FM041400 36003KT 5SM BR BKN015
     FM041900 33006KT P6SM BKN035
     FM042000 32006KT P6SM SCT035
     FM042300 32004KT P6SM SCT150=

USA.gov is the U.S. government's official web portal to all federal, state and local government web resources and services.